createdAt,value
2022-10-22T00:00:39.844Z,0.00
2022-10-22T00:01:29.834Z,0.00
2022-10-22T00:02:19.909Z,0.00
2022-10-22T00:03:09.844Z,0.00
2022-10-22T00:03:59.803Z,0.00
2022-10-22T00:04:49.794Z,0.00
2022-10-22T00:05:39.863Z,0.00
2022-10-22T00:06:29.775Z,0.00
2022-10-22T00:07:19.763Z,0.00
2022-10-22T00:08:09.754Z,0.00
2022-10-22T00:08:59.804Z,0.00
2022-10-22T00:09:49.733Z,0.00
2022-10-22T00:10:39.735Z,0.00
2022-10-22T00:11:29.733Z,0.00
2022-10-22T00:12:19.733Z,0.00
2022-10-22T00:13:09.725Z,0.00
2022-10-22T00:13:59.692Z,0.00
2022-10-22T00:14:49.674Z,0.00
2022-10-22T00:15:39.672Z,0.00
2022-10-22T00:16:29.662Z,0.00
2022-10-22T00:17:19.673Z,0.00
2022-10-22T00:18:09.642Z,0.00
2022-10-22T00:18:59.641Z,0.00
2022-10-22T00:19:49.629Z,0.00
2022-10-22T00:20:39.613Z,0.00
2022-10-22T00:21:29.612Z,0.00
2022-10-22T00:22:19.603Z,0.00
2022-10-22T00:23:09.613Z,0.00
2022-10-22T00:23:59.581Z,0.00
2022-10-22T00:24:49.569Z,0.00
2022-10-22T00:25:39.561Z,0.00
2022-10-22T00:26:29.543Z,0.00
2022-10-22T00:27:19.552Z,0.00
2022-10-22T00:28:09.533Z,0.00
2022-10-22T00:28:59.552Z,0.00
2022-10-22T00:29:49.513Z,0.00
2022-10-22T00:30:39.515Z,0.00
2022-10-22T00:31:29.495Z,0.00
2022-10-22T00:32:19.494Z,0.00
2022-10-22T00:33:09.472Z,0.00
2022-10-22T00:33:59.470Z,0.00
2022-10-22T00:34:49.494Z,0.00
2022-10-22T00:35:39.455Z,0.00
2022-10-22T00:36:29.443Z,0.00
2022-10-22T00:37:19.433Z,0.00
2022-10-22T00:38:09.417Z,0.00
2022-10-22T00:38:59.414Z,0.00
2022-10-22T00:39:49.401Z,0.00
2022-10-22T00:40:39.612Z,0.00
2022-10-22T00:41:29.381Z,0.00
2022-10-22T00:42:19.383Z,0.00
2022-10-22T00:43:09.367Z,0.00
2022-10-22T00:43:59.360Z,0.00
2022-10-22T00:44:49.339Z,0.00
2022-10-22T00:45:39.343Z,0.00
2022-10-22T00:46:29.350Z,0.00
2022-10-22T00:47:19.320Z,0.00
2022-10-22T00:48:09.314Z,0.00
2022-10-22T00:48:59.308Z,0.00
2022-10-22T00:49:49.298Z,0.00
2022-10-22T00:50:39.287Z,0.00
2022-10-22T00:51:29.271Z,0.00
2022-10-22T00:52:19.294Z,0.00
2022-10-22T00:53:09.259Z,0.00
2022-10-22T00:53:59.239Z,0.00
2022-10-22T00:54:49.231Z,0.00
2022-10-22T00:55:39.230Z,0.00
2022-10-22T00:56:29.214Z,0.00
2022-10-22T00:57:19.280Z,0.00
2022-10-22T00:58:09.198Z,0.00
2022-10-22T00:58:59.230Z,0.00
2022-10-22T00:59:49.180Z,0.00
2022-10-22T01:00:39.205Z,0.00
2022-10-22T01:01:29.367Z,0.00
2022-10-22T01:02:19.169Z,0.00
2022-10-22T01:03:09.138Z,0.00
2022-10-22T01:03:59.137Z,0.00
2022-10-22T01:04:49.139Z,0.00
2022-10-22T01:05:39.120Z,0.00
2022-10-22T01:06:29.106Z,0.00
2022-10-22T01:07:19.304Z,0.00
2022-10-22T01:08:09.091Z,0.00
2022-10-22T01:08:59.102Z,0.00
2022-10-22T01:09:49.087Z,0.00
2022-10-22T01:10:39.059Z,0.00
2022-10-22T01:11:29.042Z,0.00
2022-10-22T01:12:19.037Z,0.00
2022-10-22T01:13:09.046Z,0.00
2022-10-22T01:13:59.030Z,0.00
2022-10-22T01:14:49.006Z,0.00
2022-10-22T01:15:39.011Z,0.00
2022-10-22T01:16:28.987Z,0.00
2022-10-22T01:17:18.978Z,0.00
2022-10-22T01:18:09.000Z,0.00
2022-10-22T01:18:58.957Z,0.00
2022-10-22T01:19:48.962Z,0.00
2022-10-22T01:20:38.942Z,0.00
2022-10-22T01:21:28.939Z,0.00
2022-10-22T01:22:18.927Z,0.00
2022-10-22T01:23:08.925Z,0.00
2022-10-22T01:23:58.931Z,0.00
2022-10-22T01:24:48.900Z,0.00
2022-10-22T01:25:38.886Z,0.00
2022-10-22T01:26:28.879Z,0.00
2022-10-22T01:27:18.866Z,0.00
2022-10-22T01:28:08.865Z,0.00
2022-10-22T01:28:58.850Z,0.00
2022-10-22T01:29:48.869Z,0.00
2022-10-22T01:30:38.826Z,0.00
2022-10-22T01:31:28.825Z,0.00
2022-10-22T01:32:18.805Z,0.00
2022-10-22T01:33:08.809Z,0.00
2022-10-22T01:33:58.786Z,0.00
2022-10-22T01:34:48.785Z,0.00
2022-10-22T01:35:38.810Z,0.00
2022-10-22T01:36:28.766Z,0.00
2022-10-22T01:37:18.757Z,0.00
2022-10-22T01:38:08.747Z,0.00
2022-10-22T01:38:58.739Z,0.00
2022-10-22T01:39:48.735Z,0.00
2022-10-22T01:40:38.715Z,0.00
2022-10-22T01:41:28.950Z,0.00
2022-10-22T01:42:18.706Z,0.00
2022-10-22T01:43:08.695Z,0.00
2022-10-22T01:43:58.674Z,0.00
2022-10-22T01:44:48.679Z,0.00
2022-10-22T01:45:38.659Z,0.00
2022-10-22T01:46:28.656Z,0.00
2022-10-22T01:47:18.657Z,0.00
2022-10-22T01:48:08.635Z,0.00
2022-10-22T01:48:58.619Z,0.00
2022-10-22T01:49:48.616Z,0.00
2022-10-22T01:50:38.605Z,0.00
2022-10-22T01:51:28.629Z,0.00
2022-10-22T01:52:18.600Z,0.00
2022-10-22T01:53:08.583Z,0.00
2022-10-22T01:53:58.565Z,0.00
2022-10-22T01:54:48.554Z,0.00
2022-10-22T01:55:38.545Z,0.00
2022-10-22T01:56:28.534Z,0.00
2022-10-22T01:57:18.546Z,0.00
2022-10-22T01:58:08.523Z,0.00
2022-10-22T01:58:58.504Z,0.00
2022-10-22T01:59:48.505Z,0.00
2022-10-22T02:00:38.612Z,0.00
2022-10-22T02:01:28.485Z,0.00
2022-10-22T02:02:18.467Z,0.00
2022-10-22T02:03:08.486Z,0.00
2022-10-22T02:03:58.456Z,0.00
2022-10-22T02:04:48.443Z,0.00
2022-10-22T02:05:38.463Z,0.00
2022-10-22T02:06:28.423Z,0.00
2022-10-22T02:07:18.414Z,0.00
2022-10-22T02:08:08.412Z,0.00
2022-10-22T02:08:58.435Z,0.00
2022-10-22T02:09:48.395Z,0.00
2022-10-22T02:10:38.375Z,0.00
2022-10-22T02:11:28.395Z,0.00
2022-10-22T02:12:18.356Z,0.00
2022-10-22T02:13:08.354Z,0.00
2022-10-22T02:13:58.334Z,0.00
2022-10-22T02:14:48.334Z,0.00
2022-10-22T02:15:38.328Z,0.00
2022-10-22T02:16:28.319Z,0.00
2022-10-22T02:17:18.514Z,0.00
2022-10-22T02:18:08.293Z,0.00
2022-10-22T02:18:58.285Z,0.00
2022-10-22T02:19:48.273Z,0.00
2022-10-22T02:20:38.266Z,0.00
2022-10-22T02:21:28.256Z,0.00
2022-10-22T02:22:18.242Z,0.00
2022-10-22T02:23:08.261Z,0.00
2022-10-22T02:23:58.234Z,0.00
2022-10-22T02:24:48.224Z,0.00
2022-10-22T02:25:38.250Z,0.00
2022-10-22T02:26:28.204Z,0.00
2022-10-22T02:27:20.725Z,0.00
2022-10-22T02:28:08.182Z,0.00
2022-10-22T02:28:58.175Z,0.00
2022-10-22T02:29:48.170Z,0.00
2022-10-22T02:30:38.155Z,0.00
2022-10-22T02:31:28.412Z,0.00
2022-10-22T02:32:18.158Z,0.00
2022-10-22T02:33:08.132Z,0.00
2022-10-22T02:33:58.121Z,0.00
2022-10-22T02:34:48.104Z,0.00
2022-10-22T02:35:38.102Z,0.00
2022-10-22T02:36:28.092Z,0.00
2022-10-22T02:37:18.118Z,0.00
2022-10-22T02:38:08.103Z,0.00
2022-10-22T02:38:58.056Z,0.00
2022-10-22T02:39:48.053Z,0.00
2022-10-22T02:40:38.042Z,0.00
2022-10-22T02:41:28.036Z,0.00
2022-10-22T02:42:18.021Z,0.00
2022-10-22T02:43:08.232Z,0.00
2022-10-22T02:43:58.012Z,0.00
2022-10-22T02:44:48.014Z,0.00
2022-10-22T02:45:37.983Z,0.00
2022-10-22T02:46:27.973Z,0.00
2022-10-22T02:47:17.971Z,0.00
2022-10-22T02:48:08.000Z,0.00
2022-10-22T02:48:57.963Z,0.00
2022-10-22T02:49:47.940Z,0.00
2022-10-22T02:50:37.952Z,0.00
2022-10-22T02:51:27.919Z,0.00
2022-10-22T02:52:17.913Z,0.00
2022-10-22T02:53:07.901Z,0.00
2022-10-22T02:53:57.882Z,0.00
2022-10-22T02:54:47.882Z,0.00
2022-10-22T02:55:37.871Z,0.00
2022-10-22T02:56:28.080Z,0.00
2022-10-22T02:57:17.916Z,0.00
2022-10-22T02:58:07.842Z,0.00
2022-10-22T02:58:57.831Z,0.00
2022-10-22T02:59:47.821Z,0.00
2022-10-22T03:00:37.852Z,0.00
2022-10-22T03:01:27.812Z,0.00
2022-10-22T03:02:17.828Z,0.00
2022-10-22T03:03:07.790Z,0.00
2022-10-22T03:03:57.785Z,0.00
2022-10-22T03:04:47.781Z,0.00
2022-10-22T03:05:37.766Z,0.00
2022-10-22T03:06:27.755Z,0.00
2022-10-22T03:07:17.771Z,0.00
2022-10-22T03:08:07.739Z,0.00
2022-10-22T03:08:57.752Z,0.00
2022-10-22T03:09:47.722Z,0.00
2022-10-22T03:10:37.703Z,0.00
2022-10-22T03:11:27.698Z,0.00
2022-10-22T03:12:17.680Z,0.00
2022-10-22T03:13:07.886Z,0.00
2022-10-22T03:13:57.683Z,0.00
2022-10-22T03:14:47.658Z,0.00
2022-10-22T03:15:37.654Z,0.00
2022-10-22T03:16:27.654Z,0.00
2022-10-22T03:17:17.629Z,0.00
2022-10-22T03:18:07.619Z,0.00
2022-10-22T03:18:57.629Z,0.00
2022-10-22T03:19:47.599Z,0.00
2022-10-22T03:20:37.597Z,0.00
2022-10-22T03:21:27.582Z,0.00
2022-10-22T03:22:17.584Z,0.00
2022-10-22T03:23:07.569Z,0.00
2022-10-22T03:23:57.549Z,0.00
2022-10-22T03:24:47.570Z,0.00
2022-10-22T03:25:37.541Z,0.00
2022-10-22T03:26:27.528Z,0.00
2022-10-22T03:27:17.518Z,0.00
2022-10-22T03:28:07.511Z,0.00
2022-10-22T03:28:57.519Z,0.00
2022-10-22T03:29:47.487Z,0.00
2022-10-22T03:30:37.477Z,0.00
2022-10-22T03:31:27.479Z,0.00
2022-10-22T03:32:17.462Z,0.00
2022-10-22T03:33:07.469Z,0.00
2022-10-22T03:33:57.440Z,0.00
2022-10-22T03:34:47.527Z,0.00
2022-10-22T03:35:37.424Z,0.00
2022-10-22T03:36:27.419Z,0.00
2022-10-22T03:37:17.406Z,0.00
2022-10-22T03:38:07.400Z,0.00
2022-10-22T03:38:57.388Z,0.00
2022-10-22T03:39:47.413Z,0.00
2022-10-22T03:40:37.619Z,0.00
2022-10-22T03:41:27.360Z,0.00
2022-10-22T03:42:17.350Z,0.00
2022-10-22T03:43:07.341Z,0.00
2022-10-22T03:43:57.327Z,0.00
2022-10-22T03:44:47.317Z,0.00
2022-10-22T03:46:27.516Z,0.00
2022-10-22T03:47:17.287Z,0.00
2022-10-22T03:48:07.287Z,0.00
2022-10-22T03:48:57.274Z,0.00
2022-10-22T03:49:47.267Z,0.00
2022-10-22T03:50:37.256Z,0.00
2022-10-22T03:51:27.247Z,0.00
2022-10-22T03:52:17.438Z,0.00
2022-10-22T03:53:07.227Z,0.00
2022-10-22T03:53:57.214Z,0.00
2022-10-22T03:54:47.231Z,0.00
2022-10-22T03:55:37.196Z,0.00
2022-10-22T03:56:27.217Z,0.00
2022-10-22T03:57:17.178Z,0.00
2022-10-22T03:58:07.168Z,0.00
2022-10-22T03:58:57.156Z,0.00
2022-10-22T03:59:47.157Z,0.00
2022-10-22T04:00:37.149Z,0.00
2022-10-22T04:01:27.231Z,0.00
2022-10-22T04:02:17.328Z,0.00
2022-10-22T04:03:07.117Z,0.00
2022-10-22T04:03:57.314Z,0.00
2022-10-22T04:04:47.103Z,0.00
2022-10-22T04:05:37.086Z,0.00
2022-10-22T04:06:27.076Z,0.00
2022-10-22T04:07:17.075Z,0.00
2022-10-22T04:08:07.085Z,0.00
2022-10-22T04:08:57.089Z,0.00
2022-10-22T04:09:47.246Z,0.00
2022-10-22T04:10:37.035Z,0.00
2022-10-22T04:11:27.025Z,0.00
2022-10-22T04:12:17.006Z,0.00
2022-10-22T04:13:07.002Z,0.00
2022-10-22T04:13:56.986Z,0.00
2022-10-22T04:14:46.983Z,0.00
2022-10-22T04:15:37.028Z,0.00
2022-10-22T04:16:28.746Z,0.00
2022-10-22T04:17:16.956Z,0.00
2022-10-22T04:18:06.947Z,0.00
2022-10-22T04:18:56.928Z,0.00
2022-10-22T04:19:46.923Z,0.00
2022-10-22T04:20:36.913Z,0.00
2022-10-22T04:21:26.926Z,0.00
2022-10-22T04:22:16.897Z,0.00
2022-10-22T04:23:06.894Z,0.00
2022-10-22T04:23:56.904Z,0.00
2022-10-22T04:24:46.900Z,0.00
2022-10-22T04:25:36.855Z,0.00
2022-10-22T04:26:26.862Z,0.00
2022-10-22T04:27:16.834Z,0.00
2022-10-22T04:28:06.830Z,0.00
2022-10-22T04:28:56.816Z,0.00
2022-10-22T04:29:46.833Z,0.00
2022-10-22T04:30:36.795Z,0.00
2022-10-22T04:31:26.792Z,0.00
2022-10-22T04:32:16.785Z,0.00
2022-10-22T04:33:06.773Z,0.00
2022-10-22T04:33:56.762Z,0.00
2022-10-22T04:34:46.756Z,0.00
2022-10-22T04:35:36.770Z,0.00
2022-10-22T04:36:26.748Z,0.00
2022-10-22T04:37:16.723Z,0.00
2022-10-22T04:38:06.742Z,0.00
2022-10-22T04:38:56.704Z,0.00
2022-10-22T04:39:46.693Z,0.00
2022-10-22T04:40:36.710Z,0.00
2022-10-22T04:41:26.681Z,0.00
2022-10-22T04:42:16.671Z,0.00
2022-10-22T04:43:06.663Z,0.00
2022-10-22T04:43:56.666Z,0.00
2022-10-22T04:44:46.656Z,0.00
2022-10-22T04:45:36.642Z,0.00
2022-10-22T04:46:26.643Z,0.00
2022-10-22T04:47:16.613Z,0.00
2022-10-22T04:48:06.613Z,0.00
2022-10-22T04:48:56.592Z,0.00
2022-10-22T04:49:46.591Z,0.00
2022-10-22T04:50:36.783Z,0.00
2022-10-22T04:51:26.565Z,0.00
2022-10-22T04:52:16.562Z,0.00
2022-10-22T04:53:06.541Z,0.00
2022-10-22T04:53:56.542Z,0.00
2022-10-22T04:54:46.531Z,0.00
2022-10-22T04:55:36.520Z,0.00
2022-10-22T04:56:26.759Z,0.00
2022-10-22T04:57:16.504Z,0.00
2022-10-22T04:58:06.492Z,0.00
2022-10-22T04:58:56.484Z,0.00
2022-10-22T04:59:46.471Z,0.00
2022-10-22T05:00:36.484Z,0.00
2022-10-22T05:01:26.512Z,0.00
2022-10-22T05:02:16.689Z,0.00
2022-10-22T05:03:06.433Z,0.00
2022-10-22T05:03:56.432Z,0.00
2022-10-22T05:04:46.415Z,0.00
2022-10-22T05:05:36.411Z,0.00
2022-10-22T05:06:26.397Z,0.00
2022-10-22T05:07:16.394Z,0.00
2022-10-22T05:08:06.592Z,0.00
2022-10-22T05:08:56.429Z,0.00
2022-10-22T05:09:46.350Z,0.00
2022-10-22T05:10:36.352Z,0.00
2022-10-22T05:11:26.334Z,0.00
2022-10-22T05:12:16.332Z,0.00
2022-10-22T05:13:06.321Z,0.00
2022-10-22T05:13:56.329Z,0.00
2022-10-22T05:14:46.298Z,0.00
2022-10-22T05:15:36.289Z,0.00
2022-10-22T05:16:26.280Z,0.00
2022-10-22T05:17:16.269Z,0.00
2022-10-22T05:18:06.260Z,0.00
2022-10-22T05:18:56.258Z,0.00
2022-10-22T05:19:46.449Z,0.00
2022-10-22T05:20:36.238Z,0.00
2022-10-22T05:21:26.220Z,0.00
2022-10-22T05:22:16.218Z,0.00
2022-10-22T05:23:06.198Z,0.00
2022-10-22T05:23:56.197Z,0.00
2022-10-22T05:24:46.191Z,0.00
2022-10-22T05:25:36.218Z,0.00
2022-10-22T05:26:26.171Z,0.00
2022-10-22T05:27:16.216Z,0.00
2022-10-22T05:28:06.148Z,0.00
2022-10-22T05:28:56.147Z,0.00
2022-10-22T05:29:46.129Z,0.00
2022-10-22T05:30:36.127Z,0.00
2022-10-22T05:31:26.318Z,0.00
2022-10-22T05:32:16.105Z,0.00
2022-10-22T05:33:06.088Z,0.00
2022-10-22T05:33:56.096Z,4.00
2022-10-22T05:34:46.068Z,4.00
2022-10-22T05:35:36.067Z,4.00
2022-10-22T05:36:26.051Z,4.00
2022-10-22T05:37:16.079Z,8.00
2022-10-22T05:38:06.030Z,4.00
2022-10-22T05:38:56.039Z,8.00
2022-10-22T05:39:46.018Z,8.00
2022-10-22T05:40:36.017Z,12.00
2022-10-22T05:41:25.996Z,12.00
2022-10-22T05:42:15.988Z,12.00
2022-10-22T05:43:06.186Z,16.00
2022-10-22T05:43:55.966Z,16.00
2022-10-22T05:44:45.962Z,20.00
2022-10-22T05:45:35.957Z,20.00
2022-10-22T05:46:25.945Z,24.00
2022-10-22T05:47:15.937Z,24.00
2022-10-22T05:48:05.928Z,24.00
2022-10-22T05:48:55.951Z,32.00
2022-10-22T05:49:45.900Z,32.00
2022-10-22T05:50:35.896Z,36.00
2022-10-22T05:51:25.884Z,40.00
2022-10-22T05:52:15.877Z,44.00
2022-10-22T05:53:05.866Z,48.00
2022-10-22T05:53:55.855Z,52.00
2022-10-22T05:54:46.045Z,60.00
2022-10-22T05:55:35.842Z,64.00
2022-10-22T05:56:25.827Z,68.00
2022-10-22T05:57:15.817Z,76.00
2022-10-22T05:58:05.816Z,80.00
2022-10-22T05:58:55.814Z,84.00
2022-10-22T05:59:45.877Z,92.00
2022-10-22T06:00:35.786Z,96.00
2022-10-22T06:01:25.766Z,104.00
2022-10-22T06:02:15.807Z,112.00
2022-10-22T06:03:05.756Z,116.00
2022-10-22T06:03:55.747Z,128.00
2022-10-22T06:04:45.734Z,136.00
2022-10-22T06:05:35.755Z,148.00
2022-10-22T06:06:25.716Z,160.00
2022-10-22T06:07:15.708Z,176.00
2022-10-22T06:08:05.694Z,192.00
2022-10-22T06:08:55.747Z,200.00
2022-10-22T06:09:45.677Z,216.00
2022-10-22T06:10:35.675Z,232.00
2022-10-22T06:11:25.687Z,248.00
2022-10-22T06:12:15.653Z,260.00
2022-10-22T06:13:05.644Z,288.00
2022-10-22T06:13:55.637Z,308.00
2022-10-22T06:14:45.625Z,328.00
2022-10-22T06:15:35.613Z,348.00
2022-10-22T06:16:25.608Z,372.00
2022-10-22T06:17:15.804Z,380.00
2022-10-22T06:18:05.587Z,392.00
2022-10-22T06:18:55.584Z,408.00
2022-10-22T06:19:45.563Z,416.00
2022-10-22T06:20:35.562Z,428.00
2022-10-22T06:21:25.547Z,440.00
2022-10-22T06:22:15.569Z,460.00
2022-10-22T06:23:05.863Z,488.00
2022-10-22T06:23:55.522Z,508.00
2022-10-22T06:24:45.529Z,532.00
2022-10-22T06:25:35.503Z,560.00
2022-10-22T06:26:25.490Z,588.00
2022-10-22T06:27:15.485Z,620.00
2022-10-22T06:28:05.470Z,656.00
2022-10-22T06:28:55.492Z,692.00
2022-10-22T06:29:45.450Z,724.00
2022-10-22T06:30:35.446Z,756.00
2022-10-22T06:31:25.438Z,784.00
2022-10-22T06:32:15.425Z,824.00
2022-10-22T06:33:05.415Z,876.00
2022-10-22T06:33:55.414Z,944.00
2022-10-22T06:34:45.413Z,996.00
2022-10-22T06:35:35.382Z,1024.00
2022-10-22T06:36:25.377Z,1032.00
2022-10-22T06:37:15.372Z,1040.00
2022-10-22T06:38:05.354Z,1044.00
2022-10-22T06:38:55.414Z,1048.00
2022-10-22T06:39:45.339Z,1052.00
2022-10-22T06:40:35.361Z,1056.00
2022-10-22T06:41:28.586Z,1064.00
2022-10-22T06:42:15.315Z,1080.00
2022-10-22T06:43:05.302Z,1120.00
2022-10-22T06:43:55.321Z,1144.00
2022-10-22T06:44:45.312Z,1164.00
2022-10-22T06:45:35.275Z,1188.00
2022-10-22T06:46:25.971Z,1224.00
2022-10-22T06:47:15.264Z,1260.00
2022-10-22T06:48:05.251Z,1272.00
2022-10-22T06:48:55.247Z,1284.00
2022-10-22T06:49:45.222Z,1292.00
2022-10-22T06:50:35.220Z,1328.00
2022-10-22T06:51:25.210Z,1368.00
2022-10-22T06:52:15.223Z,1404.00
2022-10-22T06:53:05.189Z,1440.00
2022-10-22T06:53:55.189Z,1496.00
2022-10-22T06:54:45.203Z,1528.00
2022-10-22T06:55:35.167Z,1524.00
2022-10-22T06:56:25.159Z,1532.00
2022-10-22T06:57:15.152Z,1532.00
2022-10-22T06:58:05.137Z,1504.00
2022-10-22T06:58:55.132Z,1456.00
2022-10-22T06:59:45.110Z,1400.00
2022-10-22T07:00:35.313Z,1336.00
2022-10-22T07:01:25.229Z,1292.00
2022-10-22T07:02:15.449Z,1244.00
2022-10-22T07:03:05.069Z,1192.00
2022-10-22T07:03:55.070Z,1160.00
2022-10-22T07:04:45.062Z,1140.00
2022-10-22T07:05:35.054Z,1112.00
2022-10-22T07:06:25.249Z,1084.00
2022-10-22T07:07:15.039Z,1084.00
2022-10-22T07:08:05.028Z,1116.00
2022-10-22T07:08:55.168Z,1100.00
2022-10-22T07:09:45.005Z,1108.00
2022-10-22T07:10:34.997Z,1184.00
2022-10-22T07:11:24.989Z,1256.00
2022-10-22T07:12:14.996Z,1264.00
2022-10-22T07:13:04.960Z,1332.00
2022-10-22T07:13:54.958Z,1264.00
2022-10-22T07:14:44.956Z,1176.00
2022-10-22T07:15:34.942Z,1024.00
2022-10-22T07:16:29.516Z,1076.00
2022-10-22T07:17:15.956Z,1164.00
2022-10-22T07:18:04.910Z,1164.00
2022-10-22T07:18:54.908Z,1276.00
2022-10-22T07:19:48.427Z,1304.00
2022-10-22T07:20:35.881Z,1132.00
2022-10-22T07:21:24.869Z,1144.00
2022-10-22T07:22:14.864Z,1156.00
2022-10-22T07:23:04.873Z,1180.00
2022-10-22T07:23:54.850Z,1200.00
2022-10-22T07:24:44.832Z,1252.00
2022-10-22T07:25:34.820Z,1312.00
2022-10-22T07:26:24.817Z,1452.00
2022-10-22T07:27:14.804Z,1572.00
2022-10-22T07:28:04.789Z,1572.00
2022-10-22T07:28:54.810Z,1528.00
2022-10-22T07:29:44.781Z,1696.00
2022-10-22T07:30:34.766Z,1924.00
2022-10-22T07:31:24.747Z,2036.00
2022-10-22T07:32:14.768Z,2048.00
2022-10-22T07:33:04.737Z,2012.00
2022-10-22T07:33:54.737Z,2208.00
2022-10-22T07:34:44.725Z,2248.00
2022-10-22T07:35:34.740Z,2348.00
2022-10-22T07:36:24.702Z,2536.00
2022-10-22T07:37:14.688Z,2912.00
2022-10-22T07:38:05.422Z,2952.00
2022-10-22T07:38:54.677Z,3048.00
2022-10-22T07:39:44.657Z,2556.00
2022-10-22T07:40:34.660Z,2968.00
2022-10-22T07:41:24.646Z,3288.00
2022-10-22T07:42:14.640Z,2664.00
2022-10-22T07:43:04.620Z,3020.00
2022-10-22T07:43:54.636Z,3728.00
2022-10-22T07:44:44.711Z,4132.00
2022-10-22T07:45:34.611Z,4368.00
2022-10-22T07:46:24.586Z,4404.00
2022-10-22T07:47:14.576Z,4696.00
2022-10-22T07:48:04.566Z,4960.00
2022-10-22T07:48:54.575Z,4500.00
2022-10-22T07:49:44.707Z,4912.00
2022-10-22T07:50:34.586Z,5196.00
2022-10-22T07:51:24.526Z,4912.00
2022-10-22T07:52:14.527Z,5052.00
2022-10-22T07:53:04.516Z,5260.00
2022-10-22T07:53:54.513Z,5808.00
2022-10-22T07:54:44.503Z,6288.00
2022-10-22T07:55:34.532Z,6096.00
2022-10-22T07:56:24.486Z,6256.00
2022-10-22T07:57:14.476Z,6484.00
2022-10-22T07:58:04.457Z,6620.00
2022-10-22T07:58:54.488Z,6480.00
2022-10-22T07:59:44.556Z,6264.00
2022-10-22T08:00:34.434Z,6488.00
2022-10-22T08:01:24.647Z,6104.00
2022-10-22T08:02:14.422Z,5736.00
2022-10-22T08:03:04.396Z,5880.00
2022-10-22T08:03:54.394Z,6152.00
2022-10-22T08:04:44.519Z,5760.00
2022-10-22T08:05:34.384Z,5620.00
2022-10-22T08:06:24.355Z,5012.00
2022-10-22T08:07:14.432Z,5280.00
2022-10-22T08:08:04.346Z,5232.00
2022-10-22T08:08:54.385Z,5472.00
2022-10-22T08:09:44.421Z,5092.00
2022-10-22T08:10:34.335Z,4868.00
2022-10-22T08:11:24.315Z,5288.00
2022-10-22T08:12:14.317Z,5556.00
2022-10-22T08:13:05.396Z,5412.00
2022-10-22T08:13:54.284Z,5532.00
2022-10-22T08:14:44.287Z,5252.00
2022-10-22T08:15:34.354Z,5160.00
2022-10-22T08:16:24.255Z,5384.00
2022-10-22T08:17:14.246Z,5428.00
2022-10-22T08:18:04.236Z,5572.00
2022-10-22T08:18:54.262Z,5412.00
2022-10-22T08:19:44.225Z,4688.00
2022-10-22T08:20:34.225Z,4356.00
2022-10-22T08:21:24.193Z,4716.00
2022-10-22T08:22:14.197Z,5324.00
2022-10-22T08:23:04.183Z,5608.00
2022-10-22T08:23:54.198Z,5496.00
2022-10-22T08:24:44.463Z,5184.00
2022-10-22T08:25:34.160Z,5192.00
2022-10-22T08:26:24.153Z,5480.00
2022-10-22T08:27:14.132Z,5360.00
2022-10-22T08:28:04.134Z,4956.00
2022-10-22T08:28:54.122Z,4844.00
2022-10-22T08:29:44.114Z,5452.00
2022-10-22T08:30:34.323Z,5696.00
2022-10-22T08:31:24.092Z,5456.00
2022-10-22T08:32:14.098Z,5440.00
2022-10-22T08:33:04.094Z,5640.00
2022-10-22T08:33:54.072Z,5540.00
2022-10-22T08:34:44.062Z,5240.00
2022-10-22T08:35:34.042Z,5020.00
2022-10-22T08:36:24.073Z,5064.00
2022-10-22T08:37:14.027Z,5128.00
2022-10-22T08:38:04.022Z,4628.00
2022-10-22T08:38:54.002Z,4196.00
2022-10-22T08:39:44.011Z,4824.00
2022-10-22T08:40:33.992Z,5304.00
2022-10-22T08:41:23.988Z,5388.00
2022-10-22T08:42:14.672Z,5612.00
2022-10-22T08:43:03.964Z,5108.00
2022-10-22T08:43:53.954Z,4520.00
2022-10-22T08:44:43.951Z,4696.00
2022-10-22T08:45:33.948Z,4568.00
2022-10-22T08:46:23.933Z,3940.00
2022-10-22T08:47:17.425Z,4512.00
2022-10-22T08:48:05.404Z,5140.00
2022-10-22T08:48:54.045Z,4500.00
2022-10-22T08:49:43.891Z,4056.00
2022-10-22T08:50:33.882Z,3904.00
2022-10-22T08:51:23.882Z,3516.00
2022-10-22T08:52:13.860Z,3292.00
2022-10-22T08:53:03.866Z,3140.00
2022-10-22T08:53:53.891Z,3496.00
2022-10-22T08:54:43.852Z,4172.00
2022-10-22T08:55:36.602Z,4520.00
2022-10-22T08:56:23.830Z,4328.00
2022-10-22T08:57:13.810Z,3824.00
2022-10-22T08:58:03.802Z,3288.00
2022-10-22T08:58:53.791Z,3316.00
2022-10-22T08:59:43.810Z,3296.00
2022-10-22T09:00:33.776Z,3428.00
2022-10-22T09:01:23.768Z,3828.00
2022-10-22T09:02:13.751Z,3816.00
2022-10-22T09:03:03.751Z,3932.00
2022-10-22T09:03:53.738Z,3892.00
2022-10-22T09:04:43.737Z,3620.00
2022-10-22T09:05:33.752Z,3408.00
2022-10-22T09:06:23.712Z,3400.00
2022-10-22T09:07:13.699Z,3684.00
2022-10-22T09:08:03.691Z,3836.00
2022-10-22T09:08:53.720Z,3828.00
2022-10-22T09:09:43.669Z,3480.00
2022-10-22T09:10:33.661Z,3228.00
2022-10-22T09:11:23.680Z,2684.00
2022-10-22T09:12:17.733Z,2408.00
2022-10-22T09:13:04.670Z,2392.00
2022-10-22T09:13:53.648Z,2336.00
2022-10-22T09:14:43.619Z,2260.00
2022-10-22T09:15:33.609Z,2228.00
2022-10-22T09:16:23.599Z,2212.00
2022-10-22T09:17:13.591Z,2148.00
2022-10-22T09:18:03.590Z,2100.00
2022-10-22T09:18:53.573Z,2072.00
2022-10-22T09:19:43.608Z,2060.00
2022-10-22T09:20:33.549Z,2040.00
2022-10-22T09:21:23.556Z,2052.00
2022-10-22T09:22:13.530Z,2104.00
2022-10-22T09:23:03.529Z,2044.00
2022-10-22T09:23:53.520Z,2028.00
2022-10-22T09:24:43.510Z,2024.00
2022-10-22T09:25:33.828Z,2024.00
2022-10-22T09:26:23.498Z,2060.00
2022-10-22T09:27:13.478Z,2048.00
2022-10-22T09:28:03.482Z,2004.00
2022-10-22T09:28:53.679Z,2020.00
2022-10-22T09:29:43.458Z,2012.00
2022-10-22T09:30:33.453Z,2000.00
2022-10-22T09:31:23.441Z,2012.00
2022-10-22T09:32:13.427Z,2000.00
2022-10-22T09:33:03.427Z,1992.00
2022-10-22T09:33:53.409Z,1996.00
2022-10-22T09:34:43.630Z,2000.00
2022-10-22T09:35:33.388Z,2012.00
2022-10-22T09:36:23.385Z,2020.00
2022-10-22T09:37:13.375Z,2020.00
2022-10-22T09:38:03.368Z,2020.00
2022-10-22T09:38:53.362Z,2032.00
2022-10-22T09:39:43.363Z,2032.00
2022-10-22T09:40:33.557Z,2032.00
2022-10-22T09:41:23.339Z,2028.00
2022-10-22T09:42:13.317Z,2036.00
2022-10-22T09:43:03.317Z,2044.00
2022-10-22T09:43:53.312Z,2048.00
2022-10-22T09:44:46.171Z,2052.00
2022-10-22T09:45:33.288Z,2052.00
2022-10-22T09:46:23.349Z,2060.00
2022-10-22T09:47:13.267Z,2080.00
2022-10-22T09:48:03.327Z,2108.00
2022-10-22T09:48:53.247Z,2120.00
2022-10-22T09:49:43.244Z,2120.00
2022-10-22T09:50:33.228Z,2112.00
2022-10-22T09:51:23.227Z,2128.00
2022-10-22T09:52:13.246Z,2124.00
2022-10-22T09:53:03.209Z,2104.00
2022-10-22T09:53:53.193Z,2096.00
2022-10-22T09:54:43.187Z,2092.00
2022-10-22T09:55:33.178Z,2088.00
2022-10-22T09:56:23.167Z,2096.00
2022-10-22T09:57:13.156Z,2108.00
2022-10-22T09:58:03.169Z,2108.00
2022-10-22T09:58:53.137Z,2104.00
2022-10-22T09:59:43.370Z,2112.00
2022-10-22T10:00:33.125Z,2112.00
2022-10-22T10:01:23.116Z,2116.00
2022-10-22T10:02:19.956Z,2116.00
2022-10-22T10:03:04.137Z,2120.00
2022-10-22T10:03:53.088Z,2132.00
2022-10-22T10:04:43.085Z,2128.00
2022-10-22T10:05:33.116Z,2124.00
2022-10-22T10:06:23.067Z,2128.00
2022-10-22T10:07:13.047Z,2140.00
2022-10-22T10:08:03.047Z,2156.00
2022-10-22T10:08:53.113Z,2160.00
2022-10-22T10:09:43.036Z,2144.00
2022-10-22T10:10:33.019Z,2144.00
2022-10-22T10:11:26.773Z,2140.00
2022-10-22T10:12:14.004Z,2136.00
2022-10-22T10:13:03.001Z,2144.00
2022-10-22T10:13:52.977Z,2152.00
2022-10-22T10:14:42.977Z,2148.00
2022-10-22T10:15:32.966Z,2152.00
2022-10-22T10:16:22.964Z,2156.00
2022-10-22T10:17:12.975Z,2164.00
2022-10-22T10:18:02.943Z,2168.00
2022-10-22T10:18:52.935Z,2160.00
2022-10-22T10:19:42.926Z,2160.00
2022-10-22T10:20:32.915Z,2168.00
2022-10-22T10:21:22.915Z,2168.00
2022-10-22T10:22:12.920Z,2172.00
2022-10-22T10:23:02.923Z,2184.00
2022-10-22T10:23:52.885Z,2200.00
2022-10-22T10:24:42.875Z,2240.00
2022-10-22T10:25:32.866Z,2292.00
2022-10-22T10:26:22.862Z,2396.00
2022-10-22T10:27:12.845Z,2412.00
2022-10-22T10:28:02.849Z,2244.00
2022-10-22T10:28:52.855Z,2216.00
2022-10-22T10:29:42.834Z,2260.00
2022-10-22T10:30:32.815Z,2204.00
2022-10-22T10:31:22.804Z,2204.00
2022-10-22T10:32:12.796Z,2208.00
2022-10-22T10:33:02.794Z,2232.00
2022-10-22T10:33:52.775Z,2276.00
2022-10-22T10:34:42.795Z,2436.00
2022-10-22T10:35:32.755Z,2400.00
2022-10-22T10:36:22.779Z,2420.00
2022-10-22T10:37:12.746Z,2256.00
2022-10-22T10:38:02.744Z,2260.00
2022-10-22T10:38:52.733Z,2228.00